Accueil
METAR-TAF:

METAR-TAF

Aéroports :

Aérodrome de Londres Biggin Hill

Londres Biggin Hill, Angleterre

latitude: 51-19N, longitude: 000-02E, altitude: 183 m

Observation

Le bulletin a été fait il y a 19 minutes, à 12:50 UTC
Vent 7 kt de sud
Température 5°C
Humidité 81%
Pression 1016 hPa
Visibilité 10 km ou plus
Nuages épars à une hauteur de 4500 ft

METAR: EGKB 191250Z 17007KT 9999 SCT045 05/02 Q1016

Heure: 13:09 (13:09 UTC)

Prévision

Le bulletin a été fait il y a 2 heures et 9 minutes, à 11:00 UTC
Prévision valable du 19 à 12 UTC au 19 à 21 UTC
Vent 7 kt de sud-est
Visibilité 10 km ou plus
Nuages fragmentés à une hauteur de 3000 ft

TAF: EGKB 191100Z 1912/1921 14007KT 9999 BKN030

Observations et prévisions météorologiques de plus de 4000 aéroports (messages METAR et TAF).

Les stations disponibles sont représentées par des disques jaunes et rouges sur la carte.

Passer la souris dessus pour voir le nom de la station.

Cliquer dessus pour voir les observations et prévisions météorologiques.

Pour changer de carte: cliquez sur les boutons verts avec une croix noire pour zoomer, sur le bouton vert avec un tiret pour effectuer un zoom arrière, ou sur les flèches vertes pour les cartes adjacentes.


METAR-TAF: